createdAt,value
2023-03-04T00:00:06.569Z,70.55
2023-03-04T00:02:37.066Z,70.13
2023-03-04T00:05:04.117Z,70.36
2023-03-04T00:07:30.810Z,70.24
2023-03-04T00:09:57.617Z,70.22
2023-03-04T00:12:24.262Z,70.49
2023-03-04T00:14:51.009Z,70.57
2023-03-04T00:17:17.663Z,70.57
2023-03-04T00:19:44.296Z,70.52
2023-03-04T00:22:11.073Z,70.28
2023-03-04T00:24:37.703Z,70.35
2023-03-04T00:27:04.413Z,70.43
2023-03-04T00:29:30.999Z,70.39
2023-03-04T00:31:57.766Z,70.16
2023-03-04T00:34:24.573Z,69.91
2023-03-04T00:36:51.704Z,70.00
2023-03-04T00:39:18.278Z,69.90
2023-03-04T00:41:44.933Z,70.00
2023-03-04T00:44:12.880Z,70.17
2023-03-04T00:46:39.438Z,70.13
2023-03-04T00:49:06.024Z,70.23
2023-03-04T00:51:32.797Z,70.45
2023-03-04T00:54:00.937Z,70.45
2023-03-04T00:56:28.602Z,70.38
2023-03-04T00:58:55.822Z,70.54
2023-03-04T01:01:22.718Z,70.61
2023-03-04T01:03:49.622Z,70.48
2023-03-04T01:06:16.362Z,70.65
2023-03-04T01:08:44.605Z,70.86
2023-03-04T01:11:11.260Z,70.88
2023-03-04T01:13:38.178Z,70.95
2023-03-04T01:16:05.181Z,71.05
2023-03-04T01:18:32.380Z,71.15
2023-03-04T01:20:59.641Z,71.52
2023-03-04T01:23:26.336Z,71.66
2023-03-04T01:25:53.362Z,71.73
2023-03-04T01:28:20.058Z,71.73
2023-03-04T01:30:47.996Z,71.74
2023-03-04T01:33:14.889Z,71.87
2023-03-04T01:35:42.511Z,71.57
2023-03-04T01:38:09.160Z,71.82
2023-03-04T01:40:36.952Z,71.80
2023-03-04T01:43:03.782Z,71.65
2023-03-04T01:45:32.455Z,71.92
2023-03-04T01:47:59.139Z,71.95
2023-03-04T01:50:33.845Z,71.63
2023-03-04T01:53:01.748Z,71.94
2023-03-04T01:55:29.483Z,72.13
2023-03-04T01:57:56.324Z,72.15
2023-03-04T02:00:43.826Z,72.03
2023-03-04T02:03:15.172Z,72.13
2023-03-04T02:05:45.835Z,71.85
2023-03-04T02:08:15.348Z,71.84
2023-03-04T02:10:43.508Z,71.83
2023-03-04T02:13:13.096Z,71.89
2023-03-04T02:15:39.997Z,71.88
2023-03-04T02:18:25.541Z,71.28
2023-03-04T02:21:14.446Z,71.38
2023-03-04T02:23:48.052Z,71.86
2023-03-04T02:26:17.524Z,71.53
2023-03-04T02:28:48.432Z,71.51
2023-03-04T02:31:24.110Z,71.38
2023-03-04T02:33:52.748Z,71.73
2023-03-04T02:36:21.077Z,71.72
2023-03-04T02:38:51.329Z,71.63
2023-03-04T02:41:21.034Z,71.52
2023-03-04T02:43:52.270Z,71.50
2023-03-04T02:46:19.488Z,71.42
2023-03-04T02:48:47.213Z,71.33
2023-03-04T02:51:13.883Z,71.37
2023-03-04T02:53:40.768Z,71.09
2023-03-04T02:56:07.743Z,70.85
2023-03-04T02:58:36.739Z,70.33
2023-03-04T03:01:03.610Z,70.22
2023-03-04T03:03:30.350Z,69.79
2023-03-04T03:05:57.050Z,69.51
2023-03-04T03:08:25.477Z,69.41
2023-03-04T03:10:53.455Z,68.74
2023-03-04T03:13:21.380Z,69.09
2023-03-04T03:15:50.052Z,69.13
2023-03-04T03:18:16.910Z,69.42
2023-03-04T03:20:43.522Z,69.44
2023-03-04T03:23:10.313Z,69.31
2023-03-04T03:25:36.940Z,69.43
2023-03-04T03:28:05.680Z,69.54
2023-03-04T03:30:32.329Z,69.49
2023-03-04T03:32:58.904Z,69.41
2023-03-04T03:35:25.661Z,69.41
2023-03-04T03:37:52.334Z,69.29
2023-03-04T03:40:18.965Z,69.22
2023-03-04T03:42:45.603Z,69.16
2023-03-04T03:45:12.299Z,68.97
2023-03-04T03:47:38.903Z,69.11
2023-03-04T03:50:06.030Z,69.12
2023-03-04T03:52:32.644Z,69.23
2023-03-04T03:55:01.659Z,69.31
2023-03-04T03:57:29.753Z,69.21
2023-03-04T03:59:57.008Z,69.12
2023-03-04T04:02:25.672Z,69.29
2023-03-04T04:04:54.141Z,69.26
2023-03-04T04:07:20.732Z,69.23
2023-03-04T04:09:47.400Z,69.38
2023-03-04T04:12:18.810Z,69.28
2023-03-04T04:14:45.714Z,69.39
2023-03-04T04:17:13.023Z,69.23
2023-03-04T04:19:41.041Z,69.32
2023-03-04T04:22:08.520Z,68.90
2023-03-04T04:24:35.274Z,69.20
2023-03-04T04:27:02.148Z,69.34
2023-03-04T04:29:29.142Z,69.03
2023-03-04T04:31:55.947Z,69.34
2023-03-04T04:34:22.677Z,69.32
2023-03-04T04:36:49.578Z,69.21
2023-03-04T04:39:16.218Z,69.38
2023-03-04T04:41:44.988Z,69.33
2023-03-04T04:44:13.156Z,69.33
2023-03-04T04:46:40.263Z,69.35
2023-03-04T04:49:07.825Z,69.57
2023-03-04T04:51:37.077Z,69.73
2023-03-04T04:54:04.500Z,69.70
2023-03-04T04:56:31.550Z,70.02
2023-03-04T04:59:00.536Z,69.91
2023-03-04T05:01:27.759Z,69.99
2023-03-04T05:03:54.710Z,69.74
2023-03-04T05:06:24.157Z,69.56
2023-03-04T05:08:51.628Z,69.50
2023-03-04T05:11:19.313Z,69.56
2023-03-04T05:13:46.690Z,69.46
2023-03-04T05:16:13.440Z,69.67
2023-03-04T05:18:40.440Z,69.91
2023-03-04T05:21:07.188Z,69.89
2023-03-04T05:23:36.845Z,69.90
2023-03-04T05:26:04.722Z,69.92
2023-03-04T05:28:31.592Z,69.62
2023-03-04T05:30:58.422Z,69.81
2023-03-04T05:33:25.110Z,69.54
2023-03-04T05:35:52.228Z,69.66
2023-03-04T05:38:22.801Z,69.42
2023-03-04T05:41:03.688Z,69.29
2023-03-04T05:43:32.136Z,69.35
2023-03-04T05:46:05.436Z,69.39
2023-03-04T05:48:49.735Z,69.19
2023-03-04T05:51:16.392Z,69.44
2023-03-04T05:56:31.287Z,69.66
2023-03-04T05:58:58.373Z,69.45
2023-03-04T06:01:25.798Z,69.42
2023-03-04T06:03:53.106Z,69.59
2023-03-04T06:06:20.318Z,69.49
2023-03-04T06:08:49.770Z,69.47
2023-03-04T06:11:16.657Z,69.73
2023-03-04T06:13:43.392Z,69.78
2023-03-04T06:16:15.812Z,69.92
2023-03-04T06:18:44.820Z,70.02
2023-03-04T06:21:11.974Z,70.30
2023-03-04T06:23:39.273Z,70.41
2023-03-04T06:26:09.427Z,70.43
2023-03-04T06:28:36.112Z,70.69
2023-03-04T06:31:02.900Z,70.82
2023-03-04T06:33:29.503Z,71.02
2023-03-04T06:35:57.337Z,71.27
2023-03-04T06:38:25.369Z,71.37
2023-03-04T06:40:52.282Z,71.69
2023-03-04T06:43:19.744Z,71.91
2023-03-04T06:45:46.658Z,72.08
2023-03-04T06:48:13.427Z,72.42
2023-03-04T06:50:40.612Z,72.48
2023-03-04T06:53:07.305Z,72.90
2023-03-04T06:55:34.016Z,73.16
2023-03-04T06:58:00.699Z,73.08
2023-03-04T07:00:27.592Z,73.57
2023-03-04T07:02:55.396Z,73.82
2023-03-04T07:05:22.020Z,73.89
2023-03-04T07:07:48.858Z,73.97
2023-03-04T07:10:15.429Z,73.90
2023-03-04T07:12:42.134Z,74.13
2023-03-04T07:15:09.656Z,74.26
2023-03-04T07:17:36.591Z,74.33
2023-03-04T07:20:03.896Z,74.42
2023-03-04T07:22:33.122Z,74.13
2023-03-04T07:25:02.627Z,74.75
2023-03-04T07:27:29.356Z,74.94
2023-03-04T07:29:56.094Z,74.88
2023-03-04T07:32:23.049Z,75.02
2023-03-04T07:34:49.944Z,75.03
2023-03-04T07:37:17.036Z,75.12
2023-03-04T07:39:44.918Z,74.68
2023-03-04T07:42:11.701Z,75.03
2023-03-04T07:44:41.077Z,75.00
2023-03-04T07:47:07.680Z,75.29
2023-03-04T07:49:34.344Z,75.30
2023-03-04T07:52:04.704Z,74.33
2023-03-04T07:54:32.937Z,75.20
2023-03-04T07:56:59.893Z,75.01
2023-03-04T07:59:26.672Z,75.22
2023-03-04T08:01:53.344Z,74.98
2023-03-04T08:04:20.121Z,74.58
2023-03-04T08:06:47.042Z,74.71
2023-03-04T08:09:14.203Z,74.80
2023-03-04T08:11:42.105Z,74.58
2023-03-04T08:14:12.086Z,74.50
2023-03-04T08:16:40.288Z,73.92
2023-03-04T08:19:07.938Z,73.93
2023-03-04T08:21:35.702Z,74.07
2023-03-04T08:24:03.494Z,74.01
2023-03-04T08:26:33.635Z,72.98
2023-03-04T08:29:02.367Z,73.98
2023-03-04T08:31:31.482Z,73.93
2023-03-04T08:33:58.227Z,73.58
2023-03-04T08:36:27.408Z,73.57
2023-03-04T08:38:54.498Z,73.12
2023-03-04T08:41:22.450Z,73.55
2023-03-04T08:43:49.200Z,72.87
2023-03-04T08:46:16.107Z,73.38
2023-03-04T08:48:43.052Z,72.75
2023-03-04T08:51:17.399Z,73.30
2023-03-04T08:53:45.025Z,72.42
2023-03-04T08:56:13.524Z,73.58
2023-03-04T08:58:40.627Z,73.43
2023-03-04T09:01:12.528Z,72.10
2023-03-04T09:03:40.226Z,72.76
2023-03-04T09:06:08.777Z,72.04
2023-03-04T09:08:35.621Z,71.67
2023-03-04T09:11:02.680Z,71.88
2023-03-04T09:13:31.239Z,71.75
2023-03-04T09:15:58.935Z,72.54
2023-03-04T09:18:28.766Z,72.30
2023-03-04T09:20:55.662Z,73.08
2023-03-04T09:23:23.037Z,72.83
2023-03-04T09:25:49.844Z,72.32
2023-03-04T09:28:18.485Z,71.35
2023-03-04T09:30:50.244Z,71.28
2023-03-04T09:33:17.532Z,71.33
2023-03-04T09:35:44.381Z,70.87
2023-03-04T09:38:11.228Z,71.12
2023-03-04T09:40:38.031Z,71.33
2023-03-04T09:43:07.012Z,69.86
2023-03-04T09:45:47.195Z,67.88
2023-03-04T09:48:18.075Z,63.96
2023-03-04T09:51:18.050Z,67.31
2023-03-04T09:54:23.095Z,67.90
2023-03-04T09:56:56.930Z,69.42
2023-03-04T09:59:41.528Z,69.23
2023-03-04T10:02:28.161Z,67.11
2023-03-04T10:05:00.874Z,64.88
2023-03-04T10:07:35.406Z,65.94
2023-03-04T10:10:07.205Z,67.13
2023-03-04T10:12:38.413Z,65.74
2023-03-04T10:15:17.230Z,67.49
2023-03-04T10:17:48.788Z,67.24
2023-03-04T10:20:26.354Z,66.68
2023-03-04T10:22:59.940Z,65.24
2023-03-04T10:25:32.843Z,64.12
2023-03-04T10:28:04.887Z,62.65
2023-03-04T10:30:57.076Z,61.89
2023-03-04T10:33:30.256Z,59.24
2023-03-04T10:36:01.973Z,60.46
2023-03-04T10:38:35.758Z,61.73
2023-03-04T10:41:16.073Z,60.68
2023-03-04T10:43:43.808Z,60.37
2023-03-04T10:46:12.005Z,60.07
2023-03-04T10:48:43.193Z,60.88
2023-03-04T10:51:22.408Z,59.51
2023-03-04T10:53:53.121Z,59.24
2023-03-04T10:56:42.682Z,55.63
2023-03-04T10:59:35.023Z,57.02
2023-03-04T11:02:14.580Z,59.86
2023-03-04T11:04:41.285Z,59.89
2023-03-04T11:07:11.534Z,55.36
2023-03-04T11:09:38.381Z,59.49
2023-03-04T11:12:11.969Z,57.35
2023-03-04T11:14:58.959Z,55.34
2023-03-04T11:17:28.172Z,57.11
2023-03-04T11:20:06.014Z,57.18
2023-03-04T11:22:32.844Z,55.31
2023-03-04T11:25:05.934Z,56.38
2023-03-04T11:27:33.563Z,54.37
2023-03-04T11:30:29.145Z,55.36
2023-03-04T11:33:08.801Z,56.10
2023-03-04T11:35:44.025Z,54.23
2023-03-04T11:38:24.690Z,54.17
2023-03-04T11:40:58.743Z,51.84
2023-03-04T11:43:34.863Z,54.43
2023-03-04T11:46:24.221Z,50.96
2023-03-04T11:49:14.686Z,52.37
2023-03-04T11:51:46.575Z,52.27
2023-03-04T11:54:23.553Z,53.83
2023-03-04T11:57:04.661Z,53.63
2023-03-04T12:00:15.843Z,53.45
2023-03-04T12:02:54.637Z,54.39
2023-03-04T12:05:29.894Z,54.36
2023-03-04T12:08:21.731Z,50.22
2023-03-04T12:11:00.103Z,53.26
2023-03-04T12:13:39.645Z,51.83
2023-03-04T12:16:19.267Z,51.22
2023-03-04T12:18:56.560Z,51.88
2023-03-04T12:21:41.934Z,49.62
2023-03-04T12:24:21.368Z,51.11
2023-03-04T12:27:01.284Z,50.12
2023-03-04T12:29:36.582Z,52.58
2023-03-04T12:32:22.532Z,53.11
2023-03-04T12:35:27.331Z,53.10
2023-03-04T12:38:18.671Z,54.50
2023-03-04T12:40:53.755Z,51.71
2023-03-04T12:43:47.928Z,51.94
2023-03-04T12:46:22.222Z,50.45
2023-03-04T12:49:09.828Z,52.28
2023-03-04T12:51:50.985Z,54.07
2023-03-04T12:54:27.757Z,55.14
2023-03-04T12:57:26.987Z,53.23
2023-03-04T13:00:23.119Z,52.71
2023-03-04T13:02:58.587Z,51.73
2023-03-04T13:06:05.876Z,51.26
2023-03-04T13:08:44.124Z,54.42
2023-03-04T13:11:31.008Z,53.15
2023-03-04T13:14:13.623Z,51.54
2023-03-04T13:17:01.348Z,54.30
2023-03-04T13:19:57.350Z,53.14
2023-03-04T13:22:39.159Z,52.26
2023-03-04T13:25:27.508Z,52.69
2023-03-04T13:28:00.538Z,50.86
2023-03-04T13:33:14.082Z,50.16
2023-03-04T13:35:46.725Z,49.19
2023-03-04T13:38:28.732Z,49.07
2023-03-04T13:41:13.856Z,49.84
2023-03-04T13:43:44.599Z,49.54
2023-03-04T13:46:21.331Z,50.12
2023-03-04T13:48:51.264Z,50.69
2023-03-04T13:51:28.927Z,50.63
2023-03-04T13:54:08.170Z,51.44
2023-03-04T13:57:00.853Z,52.08
2023-03-04T13:59:29.698Z,51.35
2023-03-04T14:02:10.465Z,51.51
2023-03-04T14:04:39.114Z,50.96
2023-03-04T14:07:20.715Z,51.84
2023-03-04T14:10:02.662Z,51.83
2023-03-04T14:12:32.499Z,51.50
2023-03-04T14:15:04.312Z,51.53
2023-03-04T14:17:36.529Z,51.36
2023-03-04T14:20:05.896Z,52.38
2023-03-04T14:22:39.084Z,52.12
2023-03-04T14:25:14.701Z,51.74
2023-03-04T14:27:41.484Z,52.20
2023-03-04T14:30:40.791Z,51.54
2023-03-04T14:33:15.978Z,51.02
2023-03-04T14:35:48.002Z,51.78
2023-03-04T14:38:25.940Z,51.30
2023-03-04T14:41:05.749Z,50.66
2023-03-04T14:43:38.395Z,51.34
2023-03-04T14:46:12.380Z,52.07
2023-03-04T14:48:39.773Z,53.21
2023-03-04T14:51:06.515Z,51.48
2023-03-04T14:53:33.982Z,51.82
2023-03-04T14:56:09.217Z,52.39
2023-03-04T14:58:37.614Z,52.71
2023-03-04T15:01:20.189Z,53.59
2023-03-04T15:03:58.092Z,53.14
2023-03-04T15:06:27.200Z,51.20
2023-03-04T15:08:58.594Z,50.68
2023-03-04T15:11:32.783Z,51.77
2023-03-04T15:14:01.965Z,52.16
2023-03-04T15:16:49.254Z,52.45
2023-03-04T15:19:28.583Z,52.61
2023-03-04T15:22:06.685Z,52.87
2023-03-04T15:24:35.916Z,51.80
2023-03-04T15:27:02.842Z,51.74
2023-03-04T15:29:29.476Z,51.15
2023-03-04T15:31:56.242Z,51.96
2023-03-04T15:34:22.860Z,53.15
2023-03-04T15:36:51.086Z,53.15
2023-03-04T15:39:19.480Z,53.50
2023-03-04T15:41:46.162Z,53.45
2023-03-04T15:44:13.160Z,53.36
2023-03-04T15:46:40.255Z,53.79
2023-03-04T15:49:06.912Z,53.53
2023-03-04T15:51:33.732Z,53.31
2023-03-04T15:54:01.125Z,52.55
2023-03-04T15:56:31.114Z,52.32
2023-03-04T15:59:06.389Z,53.34
2023-03-04T16:01:33.078Z,52.17
2023-03-04T16:03:59.788Z,52.67
2023-03-04T16:06:30.682Z,53.73
2023-03-04T16:08:58.533Z,53.17
2023-03-04T16:11:30.144Z,53.15
2023-03-04T16:13:57.449Z,54.05
2023-03-04T16:16:24.235Z,53.58
2023-03-04T16:18:50.872Z,53.97
2023-03-04T16:21:20.417Z,54.47
2023-03-04T16:23:49.046Z,55.37
2023-03-04T16:26:18.517Z,55.26
2023-03-04T16:28:48.569Z,55.68
2023-03-04T16:31:15.882Z,55.34
2023-03-04T16:33:45.475Z,54.53
2023-03-04T16:36:22.223Z,54.38
2023-03-04T16:38:49.817Z,54.95
2023-03-04T16:41:17.813Z,54.91
2023-03-04T16:43:44.328Z,55.40
2023-03-04T16:46:12.857Z,56.07
2023-03-04T16:48:40.364Z,56.51
2023-03-04T16:51:14.397Z,56.57
2023-03-04T16:53:43.795Z,56.81
2023-03-04T16:56:14.079Z,56.67
2023-03-04T16:58:41.803Z,56.82
2023-03-04T17:01:16.543Z,56.52
2023-03-04T17:03:43.352Z,57.50
2023-03-04T17:06:11.125Z,57.25
2023-03-04T17:08:38.072Z,57.05
2023-03-04T17:11:04.815Z,57.12
2023-03-04T17:13:31.607Z,55.90
2023-03-04T17:16:03.147Z,56.38
2023-03-04T17:18:30.367Z,56.31
2023-03-04T17:21:07.459Z,56.67
2023-03-04T17:23:35.636Z,56.38
2023-03-04T17:26:02.649Z,56.47
2023-03-04T17:28:33.117Z,56.82
2023-03-04T17:30:59.777Z,57.37
2023-03-04T17:33:26.750Z,57.19
2023-03-04T17:35:55.805Z,57.70
2023-03-04T17:38:22.444Z,56.84
2023-03-04T17:40:49.109Z,56.46
2023-03-04T17:43:15.701Z,56.23
2023-03-04T17:45:42.880Z,56.21
2023-03-04T17:48:11.717Z,56.50
2023-03-04T17:50:38.404Z,56.60
2023-03-04T17:53:05.008Z,56.18
2023-03-04T17:55:31.681Z,56.31
2023-03-04T17:57:58.416Z,56.67
2023-03-04T18:00:25.391Z,57.46
2023-03-04T18:02:52.036Z,57.77
2023-03-04T18:05:18.800Z,57.81
2023-03-04T18:07:45.472Z,56.71
2023-03-04T18:10:12.439Z,56.85
2023-03-04T18:12:39.158Z,57.16
2023-03-04T18:15:06.445Z,57.71
2023-03-04T18:17:33.104Z,57.97
2023-03-04T18:19:59.921Z,57.00
2023-03-04T18:22:26.652Z,57.60
2023-03-04T18:24:53.553Z,57.70
2023-03-04T18:27:20.315Z,57.73
2023-03-04T18:29:46.989Z,58.31
2023-03-04T18:32:13.851Z,58.22
2023-03-04T18:34:40.708Z,58.37
2023-03-04T18:37:07.397Z,57.59
2023-03-04T18:39:34.008Z,57.10
2023-03-04T18:42:01.108Z,57.03
2023-03-04T18:44:27.754Z,57.51
2023-03-04T18:46:56.697Z,57.52
2023-03-04T18:49:24.119Z,58.33
2023-03-04T18:51:51.726Z,58.42
2023-03-04T18:54:18.402Z,58.63
2023-03-04T18:56:51.392Z,58.21
2023-03-04T18:59:20.348Z,56.90
2023-03-04T19:01:48.081Z,57.35
2023-03-04T19:04:15.939Z,57.93
2023-03-04T19:06:42.945Z,58.16
2023-03-04T19:09:10.622Z,58.08
2023-03-04T19:11:37.448Z,57.23
2023-03-04T19:14:04.602Z,57.86
2023-03-04T19:16:31.485Z,58.54
2023-03-04T19:18:58.293Z,58.33
2023-03-04T19:21:24.914Z,58.22
2023-03-04T19:23:51.532Z,58.79
2023-03-04T19:26:20.373Z,58.81
2023-03-04T19:28:47.075Z,59.11
2023-03-04T19:31:14.013Z,59.24
2023-03-04T19:33:41.055Z,59.42
2023-03-04T19:36:08.987Z,59.64
2023-03-04T19:38:35.948Z,59.74
2023-03-04T19:41:14.630Z,58.64
2023-03-04T19:43:41.474Z,59.65
2023-03-04T19:46:09.659Z,59.32
2023-03-04T19:48:37.882Z,59.10
2023-03-04T19:51:04.716Z,58.07
2023-03-04T19:53:34.620Z,58.36
2023-03-04T19:56:01.665Z,58.63
2023-03-04T19:58:28.574Z,58.86
2023-03-04T20:00:55.333Z,59.28
2023-03-04T20:03:22.208Z,59.73
2023-03-04T20:05:48.923Z,59.51
2023-03-04T20:08:15.603Z,60.07
2023-03-04T20:10:42.319Z,60.32
2023-03-04T20:13:09.911Z,59.90
2023-03-04T20:15:36.703Z,60.10
2023-03-04T20:18:04.471Z,60.31
2023-03-04T20:20:31.411Z,60.48
2023-03-04T20:22:58.667Z,60.01
2023-03-04T20:25:25.535Z,59.90
2023-03-04T20:27:52.252Z,59.67
2023-03-04T20:30:21.356Z,59.77
2023-03-04T20:32:48.080Z,59.84
2023-03-04T20:35:15.066Z,60.10
2023-03-04T20:37:43.036Z,60.41
2023-03-04T20:40:11.360Z,60.26
2023-03-04T20:42:38.104Z,60.42
2023-03-04T20:45:07.866Z,60.43
2023-03-04T20:47:34.803Z,60.42
2023-03-04T20:50:01.551Z,60.66
2023-03-04T20:52:28.252Z,60.72
2023-03-04T20:54:54.921Z,60.65
2023-03-04T20:57:21.608Z,60.99
2023-03-04T20:59:50.009Z,60.74
2023-03-04T21:02:18.849Z,61.08
2023-03-04T21:04:45.735Z,61.32
2023-03-04T21:07:14.259Z,61.24
2023-03-04T21:09:41.001Z,61.53
2023-03-04T21:12:08.094Z,61.81
2023-03-04T21:14:35.443Z,61.65
2023-03-04T21:17:04.543Z,61.44
2023-03-04T21:19:34.279Z,60.86
2023-03-04T21:22:01.819Z,61.90
2023-03-04T21:24:31.722Z,61.76
2023-03-04T21:26:58.571Z,61.83
2023-03-04T21:29:26.465Z,61.88
2023-03-04T21:31:54.578Z,60.23
2023-03-04T21:34:46.289Z,59.98
2023-03-04T21:37:18.564Z,61.94
2023-03-04T21:42:12.096Z,62.09
2023-03-04T21:44:50.113Z,61.73
2023-03-04T21:47:17.183Z,61.91
2023-03-04T21:49:44.258Z,61.87
2023-03-04T21:52:11.046Z,61.98
2023-03-04T21:54:37.889Z,61.96
2023-03-04T21:57:04.770Z,61.62
2023-03-04T21:59:33.198Z,61.41
2023-03-04T22:01:59.844Z,61.24
2023-03-04T22:04:26.682Z,61.37
2023-03-04T22:06:53.444Z,61.36
2023-03-04T22:09:20.352Z,61.36
2023-03-04T22:11:48.048Z,61.01
2023-03-04T22:14:14.844Z,61.00
2023-03-04T22:16:55.490Z,60.89
2023-03-04T22:19:24.493Z,60.50
2023-03-04T22:21:52.881Z,60.54
2023-03-04T22:24:20.368Z,60.77
2023-03-04T22:26:47.121Z,60.79
2023-03-04T22:29:13.927Z,60.71
2023-03-04T22:31:40.665Z,60.72
2023-03-04T22:34:10.637Z,60.68
2023-03-04T22:36:40.058Z,60.79
2023-03-04T22:39:08.894Z,60.58
2023-03-04T22:41:35.701Z,60.86
2023-03-04T22:44:02.549Z,60.13
2023-03-04T22:46:31.477Z,60.58
2023-03-04T22:49:00.649Z,60.48
2023-03-04T22:51:28.497Z,60.57
2023-03-04T22:53:56.110Z,60.69
2023-03-04T22:56:23.005Z,60.52
2023-03-04T22:58:50.212Z,60.78
2023-03-04T23:01:18.725Z,60.98
2023-03-04T23:03:48.260Z,61.19
2023-03-04T23:12:43.841Z,59.51
2023-03-04T23:15:13.310Z,61.57
2023-03-04T23:17:47.430Z,60.65
2023-03-04T23:20:20.896Z,60.73
2023-03-04T23:22:48.985Z,61.93
2023-03-04T23:25:17.928Z,62.02
2023-03-04T23:27:44.663Z,62.28
2023-03-04T23:30:15.941Z,60.21
2023-03-04T23:32:44.584Z,61.96
2023-03-04T23:35:13.176Z,62.17
2023-03-04T23:37:39.892Z,61.94
2023-03-04T23:40:08.078Z,61.60
2023-03-04T23:42:34.719Z,61.80
2023-03-04T23:45:01.450Z,61.86
2023-03-04T23:47:28.272Z,61.84
2023-03-04T23:49:54.963Z,61.85
2023-03-04T23:52:21.664Z,62.06
2023-03-04T23:54:48.312Z,61.65
2023-03-04T23:57:15.031Z,61.97
2023-03-04T23:59:41.750Z,62.18
